Kodiak — WUV9256 — position and weather

sailwx.info

Track history (hours):
 
Tides and Currents Weather Stations Pressure Air Temp Water Temp Dewpoint Dewpoint Depression Visibility Wind Speed Wind Dir Waves Ship Positions

Kodiak

Owner: KLEMZAK, JOHN, KODIAK, AK. More information available from US FCC via Universal Licensing System and Coast Guard Vessel Documentation Center.

Last reported at 2016-May-30 15:32 UTC. Time now 2016-Jul-02 09:36 UTC.
Position N 48°57' W 126°21'.
Warning: this ship's position is 32 days out of date.

Length 37 m; draft 3.5 m.

Type: Fishing. MMSI: 303546000.

Date/timePositionNaut miles runAvg speedWind from/ knotsBaromVisibWave heightAir tempDewpointWater temp
2016-May-30 15:32N 48°57' W 126°21'8 8.6
2016-May-30 14:33N 48°52' W 126°10'9 8.6
2016-May-30 13:34N 48°48' W 125°59'9 8.8
2016-May-30 12:33N 48°43' W 125°47'9 8.5
2016-May-30 11:33N 48°40' W 125°36'9 8.7
2016-May-30 10:33N 48°37' W 125°23'70 8.4
2016-May-30 02:11N 48°17' W 123°42'5 7.8
2016-May-30 01:31N 48°15' W 123°35'8 7.8
2016-May-30 00:31N 48°14' W 123°23'8 8.4
2016-May-29 23:32N 48°13' W 123°11'27 9.0
2016-May-29 20:31N 47°59' W 122°35'9 9.4
2016-May-29 19:33N 47°52' W 122°28'8 8.5
2016-May-29 18:33N 47°43' W 122°26'4 3.7
2016-May-29 17:32N 47°40' W 122°24'1 0.8
2016-May-29 16:32N 47°39' W 122°23'0 0.0
2016-May-29 15:31N 47°39' W 122°23'0 0.0
2016-May-29 14:31N 47°39' W 122°23'0 0.0
2016-May-29 13:28N 47°39' W 122°23'0 0.0
2016-May-29 12:31N 47°39' W 122°23'0 0.0
2016-May-29 11:31N 47°39' W 122°23'0 0.0
2016-May-29 10:33N 47°39' W 122°23'0 0.0
2016-May-29 09:33N 47°39' W 122°23'0 0.0
2016-May-29 08:34N 47°39' W 122°23'0 0.0
2016-May-29 07:33N 47°39' W 122°23'0 0.0
2016-May-29 06:33N 47°39' W 122°23'0 0.0
2016-May-29 05:33N 47°39' W 122°23'0 0.0
2016-May-29 04:33N 47°39' W 122°23'0 0.0
2016-May-29 03:33N 47°39' W 122°23'0 0.0
2016-May-29 02:33N 47°39' W 122°23'0 0.0
2016-May-29 01:33N 47°39' W 122°23'0 0.0
2016-May-29 00:33N 47°39' W 122°23'0 0.0
2016-May-28 23:33N 47°39' W 122°23'0 0.0
2016-May-28 22:33N 47°39' W 122°23'0 0.0
2016-May-28 21:33N 47°39' W 122°23'0 0.0
2016-May-28 20:31N 47°39' W 122°23'0 0.0
2016-May-28 19:33N 47°39' W 122°23'0 0.0
2016-May-28 18:33N 47°39' W 122°23'0 0.0
2016-May-28 17:33N 47°39' W 122°23'0 0.0
2016-May-28 16:33N 47°39' W 122°23'0 0.0
2016-May-28 15:31N 47°39' W 122°23'0 0.0
2016-May-28 14:33N 47°39' W 122°23'0 0.0
2016-May-28 13:31N 47°39' W 122°23'0 0.0
2016-May-28 12:31N 47°39' W 122°23'0 0.0
2016-May-28 11:33N 47°39' W 122°23'0 0.0
2016-May-28 10:31N 47°39' W 122°23'0 0.0
2016-May-28 09:27N 47°40' W 122°23'0 0.0
2016-May-28 08:33N 47°39' W 122°23'0 0.0
2016-May-28 07:33N 47°39' W 122°23'  
Track history (hours):
 
Tides and Currents Weather Stations Pressure Air Temp Water Temp Dewpoint Dewpoint Depression Visibility Wind Speed Wind Dir Waves Ship Positions

Kodiak

Owner: KLEMZAK, JOHN, KODIAK, AK. More information available from US FCC via Universal Licensing System and Coast Guard Vessel Documentation Center.

Last reported at 2016-May-30 15:32 UTC. Time now 2016-Jul-02 09:36 UTC.
Position N 48°57' W 126°21'.
Warning: this ship's position is 32 days out of date.

Length 37 m; draft 3.5 m.

Type: Fishing. MMSI: 303546000.

Date/timePositionNaut miles runAvg speedWind from/ knotsBaromVisibWave heightAir tempDewpointWater temp
2016-May-30 15:32N 48°57' W 126°21'8 8.6
2016-May-30 14:33N 48°52' W 126°10'9 8.6
2016-May-30 13:34N 48°48' W 125°59'9 8.8
2016-May-30 12:33N 48°43' W 125°47'9 8.5
2016-May-30 11:33N 48°40' W 125°36'9 8.7
2016-May-30 10:33N 48°37' W 125°23'70 8.4
2016-May-30 02:11N 48°17' W 123°42'5 7.8
2016-May-30 01:31N 48°15' W 123°35'8 7.8
2016-May-30 00:31N 48°14' W 123°23'8 8.4
2016-May-29 23:32N 48°13' W 123°11'27 9.0
2016-May-29 20:31N 47°59' W 122°35'9 9.4
2016-May-29 19:33N 47°52' W 122°28'8 8.5
2016-May-29 18:33N 47°43' W 122°26'4 3.7
2016-May-29 17:32N 47°40' W 122°24'1 0.8
2016-May-29 16:32N 47°39' W 122°23'0 0.0
2016-May-29 15:31N 47°39' W 122°23'0 0.0
2016-May-29 14:31N 47°39' W 122°23'0 0.0
2016-May-29 13:28N 47°39' W 122°23'0 0.0
2016-May-29 12:31N 47°39' W 122°23'0 0.0
2016-May-29 11:31N 47°39' W 122°23'0 0.0
2016-May-29 10:33N 47°39' W 122°23'0 0.0
2016-May-29 09:33N 47°39' W 122°23'0 0.0
2016-May-29 08:34N 47°39' W 122°23'0 0.0
2016-May-29 07:33N 47°39' W 122°23'0 0.0
2016-May-29 06:33N 47°39' W 122°23'0 0.0
2016-May-29 05:33N 47°39' W 122°23'0 0.0
2016-May-29 04:33N 47°39' W 122°23'0 0.0
2016-May-29 03:33N 47°39' W 122°23'0 0.0
2016-May-29 02:33N 47°39' W 122°23'0 0.0
2016-May-29 01:33N 47°39' W 122°23'0 0.0
2016-May-29 00:33N 47°39' W 122°23'0 0.0
2016-May-28 23:33N 47°39' W 122°23'0 0.0
2016-May-28 22:33N 47°39' W 122°23'0 0.0
2016-May-28 21:33N 47°39' W 122°23'0 0.0
2016-May-28 20:31N 47°39' W 122°23'0 0.0
2016-May-28 19:33N 47°39' W 122°23'0 0.0
2016-May-28 18:33N 47°39' W 122°23'0 0.0
2016-May-28 17:33N 47°39' W 122°23'0 0.0
2016-May-28 16:33N 47°39' W 122°23'0 0.0
2016-May-28 15:31N 47°39' W 122°23'0 0.0
2016-May-28 14:33N 47°39' W 122°23'0 0.0
2016-May-28 13:31N 47°39' W 122°23'0 0.0
2016-May-28 12:31N 47°39' W 122°23'0 0.0
2016-May-28 11:33N 47°39' W 122°23'0 0.0
2016-May-28 10:31N 47°39' W 122°23'0 0.0
2016-May-28 09:27N 47°40' W 122°23'0 0.0
2016-May-28 08:33N 47°39' W 122°23'0 0.0
2016-May-28 07:33N 47°39' W 122°23'  

Dump ship's entire track history